createdAt,value
2019-02-24T00:00:04.207Z,99.90
2019-02-24T00:05:09.301Z,99.90
2019-02-24T00:10:14.275Z,99.90
2019-02-24T00:15:20.843Z,99.90
2019-02-24T00:25:33.881Z,99.90
2019-02-24T00:30:39.988Z,99.90
2019-02-24T00:35:44.714Z,99.90
2019-02-24T00:40:52.380Z,99.90
2019-02-24T00:45:58.506Z,99.90
2019-02-24T01:06:15.655Z,99.90
2019-02-24T01:16:29.238Z,99.90
2019-02-24T01:21:34.712Z,99.90
2019-02-24T01:26:43.787Z,99.90
2019-02-24T01:36:53.148Z,99.90
2019-02-24T01:42:00.220Z,99.90
2019-02-24T01:47:04.228Z,99.90
2019-02-24T01:52:10.941Z,99.90
2019-02-24T02:07:34.501Z,99.90
2019-02-24T02:22:49.534Z,99.90
2019-02-24T02:27:54.620Z,99.90
2019-02-24T02:33:01.957Z,99.90
2019-02-24T02:38:08.972Z,99.90
2019-02-24T02:43:13.778Z,99.90
2019-02-24T02:53:24.020Z,99.90
2019-02-24T02:58:31.725Z,99.90
2019-02-24T03:03:36.518Z,99.90
2019-02-24T03:13:55.207Z,99.90
2019-02-24T03:19:00.021Z,99.90
2019-02-24T03:34:19.816Z,99.90
2019-02-24T03:44:34.320Z,99.90
2019-02-24T03:49:39.096Z,99.90
2019-02-24T03:59:50.317Z,99.90
2019-02-24T04:04:59.814Z,99.90
2019-02-24T04:10:05.706Z,99.90
2019-02-24T04:20:14.863Z,99.90
2019-02-24T04:35:29.598Z,99.90
2019-02-24T04:45:38.457Z,99.90
2019-02-24T04:50:43.185Z,99.90
2019-02-24T04:55:47.970Z,99.90
2019-02-24T05:05:56.828Z,99.90
2019-02-24T05:16:05.772Z,99.90
2019-02-24T05:31:20.672Z,99.90
2019-02-24T06:06:52.108Z,99.90
2019-02-24T06:11:56.953Z,99.90
2019-02-24T06:17:02.162Z,99.90
2019-02-24T06:22:06.906Z,99.90
2019-02-24T06:27:11.725Z,99.90
2019-02-24T06:42:27.353Z,99.90
2019-02-24T06:47:32.108Z,99.90
2019-02-24T07:07:49.368Z,99.90
2019-02-24T07:23:04.390Z,96.70
2019-02-24T07:28:12.309Z,96.70
2019-02-24T07:33:18.436Z,99.90
2019-02-24T07:38:23.658Z,99.90
2019-02-24T07:43:31.111Z,98.90
2019-02-24T07:48:35.986Z,99.90
2019-02-24T07:53:40.938Z,99.90
2019-02-24T07:58:46.050Z,90.20
2019-02-24T08:03:51.575Z,88.40
2019-02-24T08:08:56.864Z,88.20
2019-02-24T08:14:01.589Z,88.70
2019-02-24T08:19:07.728Z,87.40
2019-02-24T08:24:21.408Z,88.90
2019-02-24T08:29:32.570Z,92.00
2019-02-24T08:34:37.533Z,87.40
2019-02-24T08:44:49.684Z,77.10
2019-02-24T08:49:55.336Z,84.80
2019-02-24T08:55:00.466Z,82.20
2019-02-24T09:00:06.809Z,75.20
2019-02-24T09:05:13.455Z,73.20
2019-02-24T09:10:18.464Z,67.20
2019-02-24T09:15:24.867Z,67.70
2019-02-24T09:20:29.627Z,68.10
2019-02-24T09:25:37.130Z,67.60
2019-02-24T09:30:43.134Z,68.60
2019-02-24T09:35:47.972Z,65.30
2019-02-24T09:40:52.891Z,64.50
2019-02-24T09:45:57.791Z,64.10
2019-02-24T09:51:02.686Z,63.10
2019-02-24T09:56:09.875Z,66.40
2019-02-24T10:01:14.949Z,70.10
2019-02-24T10:06:19.922Z,64.00
2019-02-24T10:11:26.077Z,70.60
2019-02-24T10:16:31.067Z,72.20
2019-02-24T10:21:37.947Z,58.40
2019-02-24T10:26:42.896Z,69.10
2019-02-24T10:31:47.829Z,59.40
2019-02-24T10:36:52.621Z,57.50
2019-02-24T10:41:57.470Z,64.90
2019-02-24T10:47:02.787Z,63.70
2019-02-24T10:52:07.918Z,56.90
2019-02-24T10:57:13.137Z,56.30
2019-02-24T11:02:22.059Z,57.10
2019-02-24T11:07:27.342Z,55.20
2019-02-24T11:12:33.546Z,55.40
2019-02-24T11:17:39.711Z,57.40
2019-02-24T11:22:44.567Z,54.60
2019-02-24T11:27:49.457Z,56.60
2019-02-24T11:32:54.470Z,58.30
2019-02-24T11:37:59.373Z,50.80
2019-02-24T11:43:04.409Z,55.50
2019-02-24T11:48:09.729Z,49.60
2019-02-24T11:53:16.487Z,51.40
2019-02-24T11:58:22.108Z,57.70
2019-02-24T12:03:27.497Z,55.00
2019-02-24T12:08:32.586Z,58.10
2019-02-24T12:13:37.833Z,57.20
2019-02-24T12:18:47.399Z,58.40
2019-02-24T12:23:52.225Z,56.30
2019-02-24T12:28:57.214Z,52.20
2019-02-24T12:34:02.703Z,47.10
2019-02-24T12:39:11.245Z,47.10
2019-02-24T12:44:23.177Z,52.30
2019-02-24T12:49:28.486Z,53.90
2019-02-24T12:54:33.552Z,57.70
2019-02-24T12:59:39.592Z,56.60
2019-02-24T13:04:52.486Z,46.30
2019-02-24T13:09:57.815Z,55.80
2019-02-24T13:15:03.426Z,50.00
2019-02-24T13:20:10.115Z,56.00
2019-02-24T13:25:15.951Z,47.00
2019-02-24T13:30:21.953Z,49.20
2019-02-24T13:35:29.601Z,49.30
2019-02-24T13:40:34.530Z,45.20
2019-02-24T13:45:39.593Z,51.40
2019-02-24T13:50:44.814Z,48.70
2019-02-24T13:55:53.129Z,47.90
2019-02-24T14:00:58.366Z,48.70
2019-02-24T14:06:03.336Z,47.70
2019-02-24T14:11:10.105Z,48.60
2019-02-24T14:16:14.951Z,53.70
2019-02-24T14:21:19.989Z,46.80
2019-02-24T14:26:24.980Z,54.30
2019-02-24T14:31:33.064Z,52.10
2019-02-24T14:36:38.028Z,53.20
2019-02-24T14:41:43.079Z,55.30
2019-02-24T14:46:51.480Z,55.50
2019-02-24T14:51:57.258Z,49.50
2019-02-24T14:57:02.060Z,56.20
2019-02-24T15:02:07.403Z,53.80
2019-02-24T15:07:12.337Z,56.70
2019-02-24T15:12:18.291Z,58.40
2019-02-24T15:17:24.009Z,55.50
2019-02-24T15:22:29.076Z,56.20
2019-02-24T15:27:34.033Z,55.80
2019-02-24T15:32:39.019Z,55.70
2019-02-24T15:37:44.666Z,47.90
2019-02-24T15:42:50.463Z,56.50
2019-02-24T15:47:55.401Z,57.90
2019-02-24T15:53:00.705Z,59.20
2019-02-24T15:58:05.814Z,64.20
2019-02-24T16:03:11.524Z,68.00
2019-02-24T16:08:19.919Z,68.20
2019-02-24T16:13:25.280Z,70.10
2019-02-24T16:18:30.073Z,65.30
2019-02-24T16:23:36.911Z,63.30
2019-02-24T16:28:46.241Z,62.80
2019-02-24T16:33:57.380Z,69.10
2019-02-24T16:39:05.459Z,74.90
2019-02-24T16:44:11.746Z,75.40
2019-02-24T16:49:18.592Z,78.30
2019-02-24T16:54:23.384Z,76.50
2019-02-24T16:59:44.980Z,75.70
2019-02-24T17:04:49.943Z,76.30
2019-02-24T17:15:29.167Z,80.40
2019-02-24T17:20:34.077Z,79.20
2019-02-24T17:25:41.462Z,79.20
2019-02-24T17:40:55.370Z,70.00
2019-02-24T17:51:05.417Z,70.30
2019-02-24T17:56:11.665Z,71.70
2019-02-24T18:01:16.754Z,71.40
2019-02-24T18:36:55.108Z,72.60
2019-02-24T19:02:21.025Z,75.30
2019-02-24T19:07:27.104Z,76.10
2019-02-24T19:12:33.279Z,78.30
2019-02-24T19:22:44.625Z,83.50
2019-02-24T19:33:03.541Z,84.60
2019-02-24T19:38:08.560Z,85.40
2019-02-24T19:48:20.012Z,86.60
2019-02-24T19:53:25.675Z,87.00
2019-02-24T19:58:32.559Z,87.30
2019-02-24T20:03:39.127Z,87.90
2019-02-24T20:13:57.855Z,88.90
2019-02-24T20:34:25.525Z,80.30
2019-02-24T21:04:57.084Z,88.00
2019-02-24T21:10:04.155Z,90.00
2019-02-24T21:15:09.997Z,90.90
2019-02-24T21:30:26.259Z,91.10
